Flight Track Log - Related Links

Times and Time Zones

All times are in EDT time to prevent confusion due to time zone crossing. See the JIA2328 flight status page for this flight to view local times or setup timezone preferences in your user account.

Time Position Orientation Groundspeed Altitude Reporting Facility
EDT Latitude Longitude Course Direction KTS MPH feet Rate Location/Type
Wed 06:02:27 PM 35.1886 -80.9333 106° East 169 194 1,600  Level Atlanta Center
Wed 06:03:28 PM 35.1403 -80.9172 165° South 209 241 3,600 2,164 Climbing Atlanta Center
Wed 06:04:00 PM 35.1000 -80.6332 109° East  Level FlightAware Approximate
Wed 06:04:29 PM 35.1194 -80.8419 109° East 240 276 6,000  Level Atlanta Center
Wed 06:05:00 PM 35.0667 -80.5112 90° East  Level FlightAware Approximate
Wed 06:05:32 PM 35.0983 -80.7486 105° East 315 362 7,900  Level Atlanta Center
Wed 06:06:00 PM 35.0399 -80.3870 106° East  Level FlightAware Approximate
Wed 06:06:32 PM 35.0789 -80.6481 103° East 321 369 10,100  Level Atlanta Center
Wed 06:07:00 PM 35.0104 -80.2633 106° East  Level FlightAware Approximate
Wed 06:08:09 PM 35.0450 -80.4603 102° East 320 368 14,200  Level Washington Center
Wed 06:09:10 PM 35.0264 -80.3528 102° East 325 374 16,200 1,721 Climbing Washington Center
Wed 06:10:11 PM 35.0075 -80.2475 102° East 336 387 17,700 1,412 Climbing Washington Center
Wed 06:11:09 PM 34.9792 -80.1167 105° East 347 399 19,000 655 Climbing Washington Center
Wed 06:12:10 PM 34.9539 -80.0139 107° East 353 406 19,000  Level Washington Center
Wed 06:13:11 PM 34.9331 -79.8964 102° East 353 406 19,000  Level Washington Center
Wed 06:14:08 PM 34.9417 -79.7750 85° East 353 406 19,000  Level Washington Center
Wed 06:15:09 PM 34.9481 -79.6514 86° East 353 406 19,000  Level Washington Center
Wed 06:16:09 PM 34.9561 -79.5325 85° East 353 406 19,000  Level Washington Center
Wed 06:17:10 PM 34.9600 -79.4136 88° East 353 406 19,000  Level Washington Center
Wed 06:18:10 PM 34.9661 -79.2822 87° East 347 399 19,000  Level Washington Center
Wed 06:19:11 PM 34.9594 -79.1628 94° East 347 399 19,000 -50 Level Washington Center
Wed 06:20:11 PM 34.9481 -79.0458 97° East 347 399 18,900 -559 Descending Washington Center
Wed 06:21:09 PM 34.9411 -78.9289 94° East 352 405 17,900 -1,059 Descending Washington Center
Wed 06:22:10 PM 34.9336 -78.8172 95° East 339 390 16,800 -1,041 Descending Washington Center
Wed 06:23:10 PM 34.9219 -78.7103 98° East 325 374 15,800 -992 Descending Washington Center
Wed 06:24:11 PM 34.9142 -78.6036 95° East 319 367 14,800 -1,008 Descending Washington Center
Wed 06:25:09 PM 34.9044 -78.4969 96° East 314 361 13,800 -1,008 Descending Washington Center
Wed 06:26:10 PM 34.8967 -78.3878 95° East 314 361 12,800 -1,574 Descending Washington Center
Wed 06:27:11 PM 34.8867 -78.2783 96° East 314 361 10,600 -2,319 Descending Washington Center
Wed 06:28:09 PM 34.8867 -78.1722 90° East 314 361 8,200 -2,186 Descending Washington Center
Wed 06:29:09 PM 34.9181 -78.0769 68° East 303 349 6,300 -1,686 Descending Washington Center
Wed 06:30:10 PM 34.9492 -77.9842 68° East 292 336 4,800 -1,311 Descending Washington Center
Wed 06:31:08 PM 34.9758 -77.8986 69° East 279 321 3,700 -857 Descending Washington Center
Wed 06:32:09 PM 35.0047 -77.8108 68° East 279 321 3,100 -295 Descending Washington Center
Wed 06:33:10 PM 35.0314 -77.7203 70° East 274 315 3,100  Level Washington Center
Wed 06:34:10 PM 35.0533 -77.6472 70° East 255 293 3,100  Level Washington Center
Wed 06:35:09 PM 35.0756 -77.5742 70° East 237 273 3,100  Level Washington Center

Login

Don't have an account? Register now (free) for customized features, flight alerts, and more!